Time;durP1;ratioP1;P1;durP2;ratioP2;P2;SDS_P1;SDS_P2;PMS_P1;PMS_P2;Temp;Humidity;BMP_temperature;BMP_pressure;BME280_temperature;BME280_humidity;BME280_pressure;Samples;Min_cycle;Max_cycle;Signal;HPM_P1;HPM_P2
2022/03/20 00:00:06;;;;;;;35.92;22.25;;;4.40;99.90;;;;;;5053187;28;20037;-65
2022/03/20 00:02:42;;;;;;;37.35;22.52;;;4.40;99.90;;;;;;5057477;28;20511;-67
2022/03/20 00:05:10;;;;;;;41.65;23.45;;;4.40;99.90;;;;;;5063787;28;20076;-67
2022/03/20 00:07:38;;;;;;;37.53;23.15;;;4.40;99.90;;;;;;5053358;28;20045;-66
2022/03/20 00:10:07;;;;;;;38.35;22.90;;;4.40;99.90;;;;;;5062190;28;20051;-66
2022/03/20 00:12:36;;;;;;;40.53;23.35;;;4.40;99.90;;;;;;5043248;28;20080;-66
2022/03/20 00:15:04;;;;;;;40.78;23.08;;;4.30;99.90;;;;;;5054122;28;20037;-66
2022/03/20 00:17:32;;;;;;;38.55;23.08;;;4.30;99.90;;;;;;5044109;28;20532;-67
2022/03/20 00:20:00;;;;;;;35.92;22.58;;;4.30;99.90;;;;;;5054618;28;20564;-67
2022/03/20 00:22:28;;;;;;;39.42;24.15;;;4.30;99.90;;;;;;5055810;28;20037;-66
2022/03/20 00:24:56;;;;;;;38.90;23.52;;;4.30;99.90;;;;;;5058393;28;20055;-66
2022/03/20 00:27:24;;;;;;;35.92;22.35;;;4.30;99.90;;;;;;5061222;28;20427;-67
2022/03/20 00:29:51;;;;;;;39.50;22.63;;;4.20;99.90;;;;;;5058117;28;20040;-67
2022/03/20 00:32:21;;;;;;;40.10;23.15;;;4.20;99.90;;;;;;5051891;28;20040;-66
2022/03/20 00:34:51;;;;;;;37.83;23.98;;;4.20;99.90;;;;;;5053599;28;20363;-67
2022/03/20 00:37:18;;;;;;;40.47;24.13;;;4.20;99.90;;;;;;5057737;28;20045;-66
2022/03/20 00:39:45;;;;;;;43.92;25.05;;;4.10;99.90;;;;;;5056603;28;20389;-66
2022/03/20 00:42:13;;;;;;;40.05;25.48;;;4.20;99.90;;;;;;5054919;28;20557;-65
2022/03/20 00:44:40;;;;;;;44.35;25.15;;;4.10;99.90;;;;;;5055582;28;20118;-66
2022/03/20 00:47:07;;;;;;;42.03;25.95;;;4.10;99.90;;;;;;5052351;28;20037;-67
2022/03/20 00:49:35;;;;;;;40.60;24.83;;;4.10;99.90;;;;;;5057656;28;20041;-66
2022/03/20 00:52:04;;;;;;;41.35;25.02;;;4.10;99.90;;;;;;5053242;28;20131;-66
2022/03/20 00:54:32;;;;;;;41.42;25.60;;;4.00;99.90;;;;;;5058629;28;20492;-66
2022/03/20 00:56:59;;;;;;;41.47;25.35;;;4.00;99.90;;;;;;5057035;28;20037;-66
2022/03/20 00:59:27;;;;;;;41.67;24.90;;;4.00;99.90;;;;;;5054204;28;20557;-67
2022/03/20 01:01:55;;;;;;;38.55;25.35;;;4.00;99.90;;;;;;5051804;28;20044;-66
2022/03/20 01:04:22;;;;;;;43.17;25.95;;;4.00;99.90;;;;;;5057857;28;20124;-66
2022/03/20 01:06:49;;;;;;;44.05;25.67;;;4.00;99.90;;;;;;5058242;28;20049;-66
2022/03/20 01:09:17;;;;;;;41.13;24.42;;;4.00;99.90;;;;;;5051169;28;20052;-66
2022/03/20 01:11:44;;;;;;;46.00;26.55;;;4.00;99.90;;;;;;5052321;28;20063;-66
2022/03/20 01:14:13;;;;;;;42.28;25.55;;;4.00;99.90;;;;;;5050012;28;20495;-66
2022/03/20 01:16:40;;;;;;;48.03;27.67;;;3.90;99.90;;;;;;5051142;28;20500;-67
2022/03/20 01:19:07;;;;;;;45.35;26.38;;;3.90;99.90;;;;;;5050699;28;20068;-65
2022/03/20 01:21:34;;;;;;;42.45;25.42;;;3.90;99.90;;;;;;5052043;28;20048;-67
2022/03/20 01:24:02;;;;;;;44.47;25.85;;;3.90;99.90;;;;;;5047993;28;20542;-66
2022/03/20 01:26:29;;;;;;;47.50;26.30;;;3.80;99.90;;;;;;5051733;28;20074;-66
2022/03/20 01:28:57;;;;;;;46.25;26.75;;;3.90;99.90;;;;;;5051478;28;20446;-66
2022/03/20 01:31:24;;;;;;;45.45;26.83;;;3.90;99.90;;;;;;5052065;28;20407;-66
2022/03/20 01:33:51;;;;;;;45.45;26.95;;;3.80;99.90;;;;;;5045325;28;20499;-67
2022/03/20 01:36:18;;;;;;;44.35;27.48;;;3.80;99.90;;;;;;5051355;28;20037;-66
2022/03/20 01:38:46;;;;;;;48.80;29.13;;;3.80;99.90;;;;;;5051695;28;20095;-66
2022/03/20 01:41:14;;;;;;;47.33;28.08;;;3.70;99.90;;;;;;5053910;28;20492;-66
2022/03/20 01:43:59;;;;;;;44.67;26.92;;;3.80;99.90;;;;;;5060966;28;20041;-66
2022/03/20 01:46:27;;;;;;;46.53;27.35;;;3.70;99.90;;;;;;5050313;28;20049;-66
2022/03/20 01:48:54;;;;;;;45.53;28.65;;;3.70;99.90;;;;;;5050150;28;20068;-66
2022/03/20 01:54:13;;;;;;;48.83;26.40;;;3.60;99.90;;;;;;5028999;28;20079;-67
2022/03/20 01:56:46;;;;;;;51.20;29.25;;;3.60;99.90;;;;;;5053574;28;20499;-66
2022/03/20 01:59:17;;;;;;;49.45;28.63;;;3.60;99.90;;;;;;5037122;28;20131;-65
2022/03/20 02:01:45;;;;;;;45.25;27.02;;;3.70;99.90;;;;;;5042360;28;20041;-66
2022/03/20 02:04:14;;;;;;;47.80;28.02;;;3.60;99.90;;;;;;5050657;28;20037;-67
2022/03/20 02:06:44;;;;;;;44.47;27.15;;;3.60;99.90;;;;;;5048596;28;20427;-67
2022/03/20 02:09:13;;;;;;;46.60;27.23;;;3.60;99.90;;;;;;5040140;28;20159;-66
2022/03/20 02:11:43;;;;;;;48.95;28.27;;;3.50;99.90;;;;;;5050601;28;20111;-66
2022/03/20 02:14:10;;;;;;;47.50;27.55;;;3.50;99.90;;;;;;5049492;28;20519;-66
2022/03/20 02:16:38;;;;;;;45.05;27.23;;;3.50;99.90;;;;;;5049899;28;20461;-66
2022/03/20 02:19:08;;;;;;;47.88;28.20;;;3.50;99.90;;;;;;5048522;28;20148;-66
2022/03/20 02:21:46;;;;;;;46.63;27.33;;;3.50;99.90;;;;;;5057599;28;20556;-66
2022/03/20 02:24:49;;;;;;;49.83;28.58;;;3.50;99.90;;;;;;5064738;28;20037;-66
2022/03/20 02:27:22;;;;;;;50.53;28.92;;;3.40;99.90;;;;;;5028487;28;20521;-66
2022/03/20 02:29:54;;;;;;;49.55;28.85;;;3.40;99.90;;;;;;5067112;28;20064;-65
2022/03/20 02:32:27;;;;;;;43.47;26.38;;;3.40;99.90;;;;;;5056335;28;20124;-67
2022/03/20 02:34:56;;;;;;;47.72;28.45;;;3.30;99.90;;;;;;5054922;28;20593;-67
2022/03/20 02:37:25;;;;;;;53.78;29.05;;;3.30;99.90;;;;;;5059564;28;20055;-66
2022/03/20 02:39:58;;;;;;;49.97;28.92;;;3.30;99.90;;;;;;5064223;28;20433;-66
2022/03/20 02:42:28;;;;;;;46.85;28.17;;;3.30;99.90;;;;;;5048608;28;20422;-66
2022/03/20 02:45:00;;;;;;;48.60;29.23;;;3.20;99.90;;;;;;5060707;28;20505;-65
2022/03/20 02:47:32;;;;;;;49.10;29.50;;;3.20;99.90;;;;;;5064665;28;20544;-67
2022/03/20 02:50:11;;;;;;;50.53;29.75;;;3.20;99.90;;;;;;5055739;28;20507;-65
2022/03/20 02:52:52;;;;;;;44.22;28.30;;;3.20;99.90;;;;;;5043203;28;20524;-65
2022/03/20 02:55:35;;;;;;;46.97;29.52;;;3.20;99.90;;;;;;5060743;28;20040;-65
2022/03/20 02:58:03;;;;;;;;;;;3.10;99.90;;;;;;5046775;28;20045;-64
2022/03/20 03:00:33;;;;;;;50.78;28.40;;;3.10;99.90;;;;;;5047594;28;20397;-67
2022/03/20 03:03:04;;;;;;;48.67;29.73;;;3.00;99.90;;;;;;5049088;28;20037;-66
2022/03/20 03:05:32;;;;;;;50.03;29.60;;;3.00;99.90;;;;;;5065761;28;20056;-66
2022/03/20 03:10:56;;;;;;;46.13;27.70;;;2.90;99.90;;;;;;5066791;28;20044;-66
2022/03/20 03:13:38;;;;;;;53.90;30.25;;;2.90;99.90;;;;;;5066852;28;20112;-66
2022/03/20 03:16:08;;;;;;;51.92;30.95;;;2.90;99.90;;;;;;5067631;28;20761;-66
2022/03/20 03:18:38;;;;;;;53.13;31.48;;;2.90;99.90;;;;;;5065085;28;20041;-66
2022/03/20 03:21:09;;;;;;;52.50;30.38;;;2.90;99.90;;;;;;5052297;28;20041;-66
2022/03/20 03:23:37;;;;;;;48.28;29.17;;;2.90;99.90;;;;;;5048796;28;20187;-66
2022/03/20 03:26:05;;;;;;;53.13;29.92;;;2.90;99.90;;;;;;5056290;28;20526;-66
2022/03/20 03:28:34;;;;;;;50.95;30.63;;;3.00;99.90;;;;;;5051827;28;20522;-67
2022/03/20 03:31:08;;;;;;;52.00;31.55;;;3.00;99.90;;;;;;5052011;28;20044;-66
2022/03/20 03:35:41;;;;;;;53.70;32.33;;;3.00;99.90;;;;;;5050326;28;20037;-66
2022/03/20 03:36:29;;;;;;;;;;;3.00;99.90;;;;;;5052455;28;20479;-67
2022/03/20 03:38:56;;;;;;;51.00;29.20;;;3.00;99.90;;;;;;5048237;28;19920;-67
2022/03/20 03:41:24;;;;;;;49.72;30.42;;;3.00;99.90;;;;;;5052228;28;20045;-67
2022/03/20 03:43:52;;;;;;;50.90;30.33;;;3.00;99.90;;;;;;5051245;28;20071;-65
2022/03/20 03:46:19;;;;;;;53.60;30.08;;;3.00;99.90;;;;;;5052856;28;20041;-66
2022/03/20 03:48:46;;;;;;;51.72;30.80;;;3.00;99.90;;;;;;5050616;28;20491;-66
2022/03/20 03:51:14;;;;;;;51.15;31.30;;;3.00;99.90;;;;;;5045851;28;20053;-67
2022/03/20 03:53:41;;;;;;;51.17;30.90;;;3.00;99.90;;;;;;5055387;28;20150;-66
2022/03/20 03:56:08;;;;;;;50.20;28.90;;;2.90;99.90;;;;;;5054224;28;20143;-66
2022/03/20 03:58:35;;;;;;;56.47;31.52;;;2.90;99.90;;;;;;5065254;28;21153;-66
2022/03/20 04:01:03;;;;;;;57.80;33.17;;;2.90;99.90;;;;;;5048051;28;20049;-66
2022/03/20 04:03:30;;;;;;;55.20;32.65;;;2.90;99.90;;;;;;5049497;28;20416;-66
2022/03/20 04:06:04;;;;;;;56.83;32.78;;;2.80;99.90;;;;;;5060805;28;20041;-66
2022/03/20 04:08:34;;;;;;;58.78;35.40;;;2.80;99.90;;;;;;5047347;28;20045;-67
2022/03/20 04:11:02;;;;;;;54.65;32.97;;;2.80;99.90;;;;;;5039000;28;20050;-66
2022/03/20 04:13:30;;;;;;;52.60;32.20;;;2.80;99.90;;;;;;5041367;28;20187;-65
2022/03/20 04:15:57;;;;;;;55.88;32.88;;;2.90;99.90;;;;;;5038694;28;20040;-67
2022/03/20 04:18:25;;;;;;;53.22;33.63;;;2.80;99.90;;;;;;5055437;28;20048;-65
2022/03/20 04:20:52;;;;;;;53.35;32.33;;;2.80;99.90;;;;;;5058812;28;20044;-66
2022/03/20 04:26:05;;;;;;;58.03;34.38;;;2.90;99.90;;;;;;5059624;28;20041;-66
2022/03/20 04:28:33;;;;;;;62.13;36.38;;;2.80;99.90;;;;;;5060010;28;20041;-67
2022/03/20 04:31:00;;;;;;;57.28;34.13;;;2.90;99.90;;;;;;5052852;28;20134;-66
2022/03/20 04:33:29;;;;;;;61.67;34.65;;;2.90;99.90;;;;;;5051596;28;20171;-66
2022/03/20 04:35:57;;;;;;;52.10;32.60;;;2.80;99.90;;;;;;5055164;28;20048;-66
2022/03/20 04:38:26;;;;;;;57.25;33.92;;;2.80;99.90;;;;;;5052732;28;20051;-66
2022/03/20 04:40:53;;;;;;;56.45;33.35;;;2.80;99.90;;;;;;5055709;28;20041;-66
2022/03/20 04:43:20;;;;;;;60.63;35.83;;;2.80;99.90;;;;;;5055801;28;20388;-66
2022/03/20 04:45:47;;;;;;;59.20;33.80;;;2.80;99.90;;;;;;5057824;28;20559;-65
2022/03/20 04:59:18;;;;;;;56.15;34.00;;;3.20;99.90;;;;;;5039256;28;20040;-66
2022/03/20 05:01:46;;;;;;;57.78;32.63;;;3.30;99.90;;;;;;5050829;28;20492;-66
2022/03/20 05:04:14;;;;;;;56.30;31.80;;;3.30;99.90;;;;;;5053898;28;20092;-66
2022/03/20 05:06:45;;;;;;;55.38;32.63;;;3.40;99.90;;;;;;5068072;28;20692;-65
2022/03/20 05:14:45;;;;;;;63.47;36.92;;;3.30;99.90;;;;;;5048184;28;20171;-66
2022/03/20 05:17:12;;;;;;;54.17;33.35;;;3.30;99.90;;;;;;5041646;28;20479;-64
2022/03/20 05:19:40;;;;;;;55.63;33.05;;;3.30;99.90;;;;;;5057404;28;20083;-66
2022/03/20 05:22:12;;;;;;;51.00;32.28;;;3.30;99.90;;;;;;5067088;28;20526;-66
2022/03/20 05:24:40;;;;;;;51.40;31.73;;;3.30;99.90;;;;;;5065763;28;20403;-66
2022/03/20 05:27:08;;;;;;;51.55;31.52;;;3.30;99.90;;;;;;5069776;28;20160;-66
2022/03/20 05:29:35;;;;;;;55.20;32.08;;;3.30;99.90;;;;;;5066225;28;20044;-66
2022/03/20 05:32:04;;;;;;;56.78;32.70;;;3.40;99.90;;;;;;5068356;28;20079;-66
2022/03/20 05:34:33;;;;;;;58.63;33.17;;;3.40;99.90;;;;;;5054159;28;20338;-66
2022/03/20 05:37:01;;;;;;;60.90;33.17;;;3.40;99.90;;;;;;5068868;28;20044;-66
2022/03/20 05:39:30;;;;;;;55.53;32.35;;;3.60;99.90;;;;;;5059357;28;20116;-67
2022/03/20 05:41:57;;;;;;;49.28;31.27;;;3.60;99.90;;;;;;5069022;28;20041;-66
2022/03/20 05:44:26;;;;;;;53.10;32.60;;;3.60;99.90;;;;;;5066563;28;20068;-66
2022/03/20 05:46:55;;;;;;;52.38;31.45;;;3.70;99.90;;;;;;5058589;28;20048;-66
2022/03/20 05:49:23;;;;;;;54.97;33.05;;;3.70;99.90;;;;;;5065532;28;20051;-67
2022/03/20 05:51:52;;;;;;;50.63;30.70;;;3.80;99.90;;;;;;5067383;28;20048;-66
2022/03/20 05:54:19;;;;;;;50.45;30.33;;;3.80;99.90;;;;;;5047557;28;20047;-65
2022/03/20 05:59:35;;;;;;;52.05;32.35;;;3.90;99.90;;;;;;5059540;28;20454;-66
2022/03/20 06:02:03;;;;;;;50.53;29.73;;;3.90;99.90;;;;;;5049583;28;20032;-66
2022/03/20 06:04:31;;;;;;;58.33;32.10;;;4.00;99.90;;;;;;5050888;28;20037;-66
2022/03/20 06:06:59;;;;;;;56.65;32.20;;;4.00;99.90;;;;;;5050782;28;20447;-66
2022/03/20 06:09:27;;;;;;;50.63;30.42;;;4.00;99.90;;;;;;5050979;28;20045;-66
2022/03/20 06:11:55;;;;;;;49.08;31.13;;;4.10;99.90;;;;;;5051358;28;20059;-66
2022/03/20 06:14:28;;;;;;;50.22;30.63;;;4.10;99.90;;;;;;5059155;28;20435;-65
2022/03/20 06:16:56;;;;;;;54.40;32.65;;;4.20;99.90;;;;;;5051524;28;20071;-66
2022/03/20 06:19:23;;;;;;;49.03;31.20;;;4.20;99.90;;;;;;5035682;28;20049;-66
2022/03/20 06:21:50;;;;;;;50.17;30.73;;;4.30;99.90;;;;;;5049709;28;20124;-66
2022/03/20 06:24:18;;;;;;;52.90;30.83;;;4.40;99.90;;;;;;5051121;28;20037;-66
2022/03/20 06:26:45;;;;;;;51.65;30.52;;;4.40;99.90;;;;;;5050410;28;20061;-66
2022/03/20 06:29:12;;;;;;;51.33;30.02;;;4.50;99.90;;;;;;5051002;28;20045;-66
2022/03/20 06:31:40;;;;;;;51.45;31.17;;;4.50;99.90;;;;;;5056718;28;20469;-66
2022/03/20 06:34:07;;;;;;;47.42;29.58;;;4.60;99.90;;;;;;5056631;28;20155;-65
2022/03/20 06:36:35;;;;;;;49.80;30.02;;;4.70;99.90;;;;;;5058688;28;20136;-66
2022/03/20 06:39:03;;;;;;;48.22;29.67;;;4.70;99.90;;;;;;5054472;28;20045;-67
2022/03/20 06:41:30;;;;;;;50.78;30.40;;;4.80;99.90;;;;;;5050823;28;20073;-66
2022/03/20 06:43:57;;;;;;;49.25;29.80;;;4.90;99.90;;;;;;5058069;28;20040;-66
2022/03/20 06:46:27;;;;;;;49.45;30.25;;;5.00;99.90;;;;;;5052642;28;20045;-66
2022/03/20 06:48:55;;;;;;;47.60;29.80;;;5.00;99.90;;;;;;5052013;28;20525;-66
2022/03/20 06:51:22;;;;;;;49.13;29.52;;;5.10;99.90;;;;;;5035588;28;20086;-66
2022/03/20 06:53:51;;;;;;;46.78;29.80;;;5.10;99.90;;;;;;5044260;28;20038;-66
2022/03/20 06:56:19;;;;;;;48.05;31.05;;;5.20;99.90;;;;;;5047527;28;20067;-66
2022/03/20 06:58:47;;;;;;;56.38;30.50;;;5.30;99.90;;;;;;5048155;28;20151;-66
2022/03/20 07:01:14;;;;;;;47.83;29.02;;;5.50;99.90;;;;;;5047926;28;20049;-66
2022/03/20 07:03:42;;;;;;;46.90;30.08;;;5.50;99.90;;;;;;5048432;28;20419;-66
2022/03/20 07:06:09;;;;;;;44.28;28.05;;;5.60;99.90;;;;;;5049748;28;20041;-65
2022/03/20 07:08:37;;;;;;;47.08;29.13;;;5.60;99.90;;;;;;5059097;28;20041;-66
2022/03/20 07:11:04;;;;;;;49.38;28.83;;;5.70;99.90;;;;;;5058954;28;21643;-66
2022/03/20 07:13:53;;;;;;;43.65;27.55;;;5.80;99.90;;;;;;5054499;28;20123;-66
2022/03/20 07:16:28;;;;;;;46.58;27.90;;;5.90;99.90;;;;;;5054020;28;20392;-66
2022/03/20 07:18:56;;;;;;;47.75;27.92;;;6.10;99.90;;;;;;5058517;28;20139;-66
2022/03/20 07:21:25;;;;;;;45.00;27.15;;;6.20;99.90;;;;;;5056315;28;20045;-66
2022/03/20 07:23:54;;;;;;;41.38;26.98;;;6.20;99.90;;;;;;5041767;28;20056;-65
2022/03/20 07:31:54;;;;;;;41.75;26.50;;;6.50;99.90;;;;;;5049912;28;20375;-65
2022/03/20 07:34:22;;;;;;;39.97;26.15;;;6.50;99.90;;;;;;5045128;28;20516;-65
2022/03/20 07:36:50;;;;;;;40.10;25.30;;;6.60;99.90;;;;;;5046722;28;20044;-66
2022/03/20 07:39:17;;;;;;;41.83;25.00;;;6.70;99.90;;;;;;5063117;28;20033;-66
2022/03/20 07:41:44;;;;;;;44.88;27.00;;;6.80;99.90;;;;;;5058231;28;20471;-66
2022/03/20 07:44:15;;;;;;;40.00;25.08;;;6.80;99.90;;;;;;5059925;28;20034;-66
2022/03/20 07:46:43;;;;;;;37.58;23.92;;;6.90;99.90;;;;;;5059052;28;20048;-66
2022/03/20 07:49:10;;;;;;;36.50;24.70;;;7.00;99.90;;;;;;5050763;28;20049;-65
2022/03/20 07:51:38;;;;;;;40.88;25.08;;;7.00;99.90;;;;;;5046818;28;20060;-65
2022/03/20 07:54:05;;;;;;;37.72;24.08;;;7.10;99.90;;;;;;5044388;28;20446;-66
2022/03/20 07:56:35;;;;;;;39.40;24.20;;;7.20;99.90;;;;;;5046987;28;20103;-66
2022/03/20 07:59:06;;;;;;;40.33;24.88;;;7.30;99.90;;;;;;5044148;28;20037;-66
2022/03/20 08:01:34;;;;;;;39.10;24.75;;;7.40;99.90;;;;;;5056929;28;20036;-66
2022/03/20 08:04:02;;;;;;;43.10;26.70;;;7.40;99.90;;;;;;5050669;28;20041;-66
2022/03/20 08:06:30;;;;;;;38.85;25.20;;;7.50;99.90;;;;;;5057799;28;20041;-65
2022/03/20 08:08:59;;;;;;;38.90;23.63;;;7.60;99.90;;;;;;5059357;28;20095;-67
2022/03/20 08:11:28;;;;;;;36.00;23.55;;;7.70;99.90;;;;;;5065175;28;20063;-66
2022/03/20 08:13:57;;;;;;;39.80;23.80;;;7.90;99.90;;;;;;5048380;28;20056;-66
2022/03/20 08:16:26;;;;;;;38.13;23.90;;;8.00;99.90;;;;;;5053791;28;20045;-67
2022/03/20 08:18:55;;;;;;;40.13;23.58;;;8.00;99.90;;;;;;5052570;28;20041;-65
2022/03/20 08:21:23;;;;;;;34.53;22.63;;;8.00;99.90;;;;;;5064005;28;20036;-65
2022/03/20 08:23:50;;;;;;;35.75;22.73;;;8.10;99.90;;;;;;5067870;28;20033;-66
2022/03/20 08:26:17;;;;;;;36.08;23.00;;;8.20;99.90;;;;;;5063355;28;20131;-66
2022/03/20 08:28:45;;;;;;;35.85;23.45;;;8.20;99.90;;;;;;5068217;28;20044;-66
2022/03/20 08:31:14;;;;;;;33.85;22.05;;;8.30;99.90;;;;;;5048332;28;20041;-65
2022/03/20 08:33:41;;;;;;;31.90;21.98;;;8.40;99.90;;;;;;5057197;28;20132;-66
2022/03/20 08:36:09;;;;;;;33.80;22.70;;;8.40;99.90;;;;;;5054943;28;20097;-65
2022/03/20 08:38:39;;;;;;;38.10;23.08;;;8.50;99.90;;;;;;5056879;28;20045;-65
2022/03/20 08:41:06;;;;;;;33.30;21.77;;;8.50;99.90;;;;;;5059043;28;20055;-66
2022/03/20 08:43:33;;;;;;;35.83;22.77;;;8.70;99.90;;;;;;5057022;28;20122;-65
2022/03/20 08:46:01;;;;;;;32.90;22.00;;;8.80;99.90;;;;;;5053788;28;20471;-66
2022/03/20 08:48:29;;;;;;;33.63;21.60;;;8.90;99.90;;;;;;5056285;28;20041;-66
2022/03/20 08:50:56;;;;;;;30.08;21.17;;;9.20;99.90;;;;;;5052130;28;20447;-66
2022/03/20 08:53:27;;;;;;;33.50;21.30;;;9.30;99.90;;;;;;5055312;28;20062;-65
2022/03/20 08:55:54;;;;;;;35.33;21.92;;;9.30;99.90;;;;;;5066160;28;20062;-66
2022/03/20 08:58:21;;;;;;;33.33;21.27;;;9.40;99.90;;;;;;5066810;28;20036;-66
2022/03/20 09:00:49;;;;;;;32.05;21.92;;;9.50;99.90;;;;;;5050547;28;20041;-67
2022/03/20 09:03:17;;;;;;;52.95;33.45;;;9.70;99.90;;;;;;5051258;28;20049;-67
2022/03/20 09:05:44;;;;;;;42.58;27.42;;;9.80;99.90;;;;;;5065113;28;20040;-66
2022/03/20 09:08:11;;;;;;;54.40;31.10;;;9.90;99.90;;;;;;5053765;28;20412;-66
2022/03/20 09:10:39;;;;;;;57.72;32.03;;;10.00;99.90;;;;;;5051381;28;20053;-66
2022/03/20 09:13:06;;;;;;;33.53;22.88;;;10.10;99.90;;;;;;5051500;28;20056;-65
2022/03/20 09:15:33;;;;;;;44.70;26.17;;;10.10;99.90;;;;;;5049944;28;20071;-65
2022/03/20 09:20:47;;;;;;;35.80;22.25;;;10.20;99.90;;;;;;5050800;28;20519;-67
2022/03/20 09:23:15;;;;;;;32.17;21.60;;;10.50;99.90;;;;;;5045416;28;20041;-66
2022/03/20 09:25:42;;;;;;;31.48;19.80;;;10.50;99.90;;;;;;5046722;28;20075;-66
2022/03/20 09:28:11;;;;;;;30.73;20.08;;;10.50;99.90;;;;;;5050339;28;20056;-65
2022/03/20 09:30:41;;;;;;;31.65;20.67;;;10.70;99.90;;;;;;5052001;28;20048;-66
2022/03/20 09:33:10;;;;;;;29.67;19.92;;;10.80;99.90;;;;;;5050626;28;20078;-66
2022/03/20 09:35:38;;;;;;;31.90;20.30;;;10.90;99.90;;;;;;5053016;28;20057;-66
2022/03/20 09:38:07;;;;;;;31.27;21.50;;;11.00;99.90;;;;;;5057088;28;20041;-66
2022/03/20 09:40:37;;;;;;;28.52;19.95;;;11.20;99.90;;;;;;5056373;28;20036;-66
2022/03/20 09:43:05;;;;;;;28.92;19.40;;;11.30;99.90;;;;;;5048436;28;20510;-66
2022/03/20 09:45:34;;;;;;;33.05;21.27;;;11.50;99.90;;;;;;5049621;28;20055;-66
2022/03/20 09:48:03;;;;;;;28.88;19.23;;;11.60;99.90;;;;;;5042726;28;20111;-66
2022/03/20 09:50:31;;;;;;;29.55;19.00;;;11.70;99.90;;;;;;5054157;28;20055;-66
2022/03/20 09:52:59;;;;;;;31.30;20.48;;;11.90;99.90;;;;;;5052088;28;20053;-66
2022/03/20 09:55:26;;;;;;;31.85;20.13;;;12.10;99.90;;;;;;5038852;28;20032;-66
2022/03/20 09:57:58;;;;;;;28.35;19.88;;;12.20;99.90;;;;;;5060939;28;20486;-66
2022/03/20 10:00:26;;;;;;;29.83;20.05;;;12.30;99.90;;;;;;5052349;28;20041;-67
2022/03/20 10:02:53;;;;;;;28.83;19.75;;;12.30;99.90;;;;;;5050389;28;20049;-67
2022/03/20 10:05:23;;;;;;;27.02;19.15;;;12.60;99.90;;;;;;5064482;28;20047;-66
2022/03/20 10:07:50;;;;;;;30.88;19.63;;;12.70;99.90;;;;;;5059484;28;20045;-66
2022/03/20 10:10:25;;;;;;;31.10;19.48;;;12.90;99.90;;;;;;5057360;28;20041;-67
2022/03/20 10:12:55;;;;;;;30.83;20.05;;;13.00;99.90;;;;;;5046532;28;20073;-67
2022/03/20 10:15:43;;;;;;;30.33;20.13;;;13.00;99.90;;;;;;5049813;28;20045;-66
2022/03/20 10:18:17;;;;;;;31.95;20.65;;;13.10;99.90;;;;;;5041282;28;20481;-66
2022/03/20 10:20:51;;;;;;;30.63;19.48;;;13.20;99.50;;;;;;5049157;28;20112;-65
2022/03/20 10:23:39;;;;;;;26.77;18.50;;;13.40;99.50;;;;;;5050062;28;20048;-67
2022/03/20 10:26:11;;;;;;;26.52;18.67;;;13.60;98.90;;;;;;5053826;28;20040;-67
2022/03/20 10:28:41;;;;;;;28.40;18.27;;;13.80;98.80;;;;;;5058115;28;20384;-66
2022/03/20 10:31:15;;;;;;;29.98;19.52;;;14.00;98.20;;;;;;5053934;28;20550;-67
2022/03/20 10:33:46;;;;;;;26.92;19.30;;;14.10;97.70;;;;;;5046087;28;20045;-66
2022/03/20 10:36:23;;;;;;;26.92;19.00;;;14.10;97.30;;;;;;5037496;28;20036;-66
2022/03/20 10:38:50;;;;;;;24.13;17.25;;;14.30;97.10;;;;;;5057469;28;20235;-66
2022/03/20 10:41:20;;;;;;;25.75;18.52;;;14.30;96.80;;;;;;5049839;28;20037;-67
2022/03/20 10:43:49;;;;;;;27.13;18.25;;;14.40;96.40;;;;;;5054055;28;20143;-65
2022/03/20 10:46:25;;;;;;;25.85;17.63;;;14.60;96.20;;;;;;5057994;28;20064;-67
2022/03/20 10:48:58;;;;;;;26.73;18.10;;;14.90;95.90;;;;;;5057001;28;20049;-66
2022/03/20 10:51:37;;;;;;;27.45;19.42;;;15.20;95.80;;;;;;5057130;28;20052;-66
2022/03/20 10:54:20;;;;;;;27.05;19.33;;;15.20;95.00;;;;;;5041438;28;20049;-65
2022/03/20 10:56:58;;;;;;;28.05;18.88;;;15.50;94.70;;;;;;5058579;28;20045;-65
2022/03/20 10:59:32;;;;;;;26.05;17.88;;;15.80;93.70;;;;;;5050986;28;20423;-65
2022/03/20 11:02:01;;;;;;;26.85;18.75;;;15.80;93.60;;;;;;5049020;28;20052;-65
2022/03/20 11:04:31;;;;;;;27.77;18.40;;;15.90;93.40;;;;;;5049147;28;20037;-65
2022/03/20 11:07:00;;;;;;;25.33;17.92;;;16.10;92.80;;;;;;5050079;28;20393;-66
2022/03/20 11:09:28;;;;;;;27.02;18.63;;;16.30;92.70;;;;;;5060589;28;20041;-66
2022/03/20 11:11:58;;;;;;;23.65;17.73;;;16.40;91.90;;;;;;5057863;28;20060;-66
2022/03/20 11:14:27;;;;;;;24.30;17.10;;;16.50;91.90;;;;;;5064632;28;20106;-64
2022/03/20 11:17:03;;;;;;;26.95;18.75;;;16.80;91.60;;;;;;5064706;28;20085;-66
2022/03/20 11:19:32;;;;;;;22.65;17.10;;;17.00;90.70;;;;;;5064081;28;20048;-64
2022/03/20 11:22:03;;;;;;;27.10;17.80;;;17.00;90.40;;;;;;5055512;28;20037;-66
2022/03/20 11:24:31;;;;;;;24.50;17.77;;;17.20;89.00;;;;;;5062313;28;20033;-66
2022/03/20 11:27:01;;;;;;;24.35;18.17;;;17.10;89.50;;;;;;5047467;28;20045;-66
2022/03/20 11:29:35;;;;;;;21.05;16.27;;;17.30;88.80;;;;;;5043389;28;20099;-66
2022/03/20 11:32:04;;;;;;;24.92;17.23;;;17.60;88.40;;;;;;5055970;28;20395;-66
2022/03/20 11:34:32;;;;;;;23.98;17.27;;;17.80;87.60;;;;;;5057708;28;20399;-66
2022/03/20 11:37:10;;;;;;;23.75;17.83;;;18.00;85.70;;;;;;5053857;28;20503;-66
2022/03/20 11:39:39;;;;;;;26.55;17.02;;;18.20;84.20;;;;;;5058275;28;20131;-66
2022/03/20 11:42:28;;;;;;;24.35;17.23;;;18.40;83.60;;;;;;5037037;28;20074;-65
2022/03/20 11:45:03;;;;;;;23.80;17.08;;;18.40;83.00;;;;;;5043400;28;20060;-65
2022/03/20 11:47:32;;;;;;;24.63;16.48;;;18.50;81.60;;;;;;5049660;28;20048;-66
2022/03/20 11:50:19;;;;;;;24.05;17.50;;;18.70;80.70;;;;;;5063239;28;20397;-65
2022/03/20 11:53:04;;;;;;;20.80;15.90;;;19.00;80.40;;;;;;5053597;28;20385;-66
2022/03/20 11:55:33;;;;;;;21.55;15.18;;;19.30;78.80;;;;;;5058902;28;20036;-67
2022/03/20 11:58:01;;;;;;;21.77;16.75;;;19.40;78.90;;;;;;5068450;28;20052;-67
2022/03/20 12:00:31;;;;;;;20.92;15.35;;;19.60;77.70;;;;;;5048462;28;20040;-67
2022/03/20 12:03:09;;;;;;;21.77;16.02;;;19.40;76.20;;;;;;5045728;28;20076;-67
2022/03/20 12:05:58;;;;;;;24.10;16.70;;;19.70;76.10;;;;;;5056954;28;20047;-67
2022/03/20 12:08:44;;;;;;;25.98;18.80;;;19.90;76.00;;;;;;5069154;28;20044;-67
2022/03/20 12:11:26;;;;;;;21.17;15.85;;;20.40;75.70;;;;;;5048744;28;20048;-67
2022/03/20 12:14:13;;;;;;;;;;;20.90;73.40;;;;;;5058966;28;20524;-67
2022/03/20 12:16:43;;;;;;;27.00;18.23;;;20.90;73.60;;;;;;5051284;28;20279;-67
2022/03/20 12:19:16;;;;;;;22.33;17.02;;;21.10;72.50;;;;;;5054390;28;20048;-67
2022/03/20 12:21:59;;;;;;;20.45;16.08;;;20.90;72.80;;;;;;5070695;28;20576;-67
2022/03/20 12:24:37;;;;;;;20.52;15.88;;;20.80;72.70;;;;;;5056889;28;20040;-67
2022/03/20 12:27:22;;;;;;;23.23;15.93;;;21.30;72.20;;;;;;5072392;28;20117;-67
2022/03/20 12:29:59;;;;;;;21.77;16.05;;;21.60;70.90;;;;;;5047443;28;20044;-67
2022/03/20 12:32:28;;;;;;;20.60;16.13;;;21.60;70.30;;;;;;5070092;28;20048;-67
2022/03/20 12:35:04;;;;;;;20.83;15.50;;;21.70;69.70;;;;;;5049891;28;20399;-66
2022/03/20 12:37:37;;;;;;;20.42;15.90;;;21.90;69.90;;;;;;5055518;28;20048;-66
2022/03/20 12:40:13;;;;;;;23.35;16.23;;;22.00;69.30;;;;;;5054842;28;20505;-66
2022/03/20 12:43:10;;;;;;;20.65;14.85;;;22.00;68.30;;;;;;5061839;28;20480;-66
2022/03/20 12:45:41;;;;;;;21.73;15.70;;;22.30;67.40;;;;;;5057907;28;20048;-65
2022/03/20 12:48:15;;;;;;;21.17;15.07;;;22.80;67.00;;;;;;5055724;28;20521;-66
2022/03/20 12:51:09;;;;;;;23.83;16.90;;;23.40;66.00;;;;;;5065564;28;20082;-66
2022/03/20 12:53:43;;;;;;;21.38;15.15;;;23.60;64.10;;;;;;5056427;28;20527;-66
2022/03/20 12:56:28;;;;;;;17.25;13.90;;;23.40;65.60;;;;;;5052962;28;20052;-64
2022/03/20 12:58:56;;;;;;;20.48;15.55;;;23.90;63.70;;;;;;5043248;28;20460;-66
2022/03/20 13:01:24;;;;;;;27.17;18.83;;;24.00;63.10;;;;;;5057824;28;20039;-66
2022/03/20 13:03:52;;;;;;;20.63;14.90;;;24.50;62.40;;;;;;5061760;28;20500;-65
2022/03/20 13:06:26;;;;;;;21.65;15.25;;;25.40;60.60;;;;;;5065092;28;20036;-66
2022/03/20 13:08:53;;;;;;;21.08;14.07;;;26.60;59.20;;;;;;5062702;28;20064;-66
2022/03/20 13:14:12;;;;;;;17.88;13.65;;;29.20;55.70;;;;;;5062067;28;20465;-66
2022/03/20 13:16:53;;;;;;;16.63;12.93;;;30.00;54.10;;;;;;5049226;28;20140;-66
2022/03/20 13:19:25;;;;;;;15.90;12.32;;;31.40;52.10;;;;;;5060341;28;20036;-66
2022/03/20 13:21:52;;;;;;;17.80;13.45;;;31.70;50.80;;;;;;5058827;28;20391;-67
2022/03/20 13:24:31;;;;;;;23.92;14.35;;;32.40;49.70;;;;;;5062863;28;20052;-66
2022/03/20 13:27:00;;;;;;;16.75;13.55;;;33.40;48.50;;;;;;5050981;28;20063;-66
2022/03/20 13:29:28;;;;;;;15.30;12.77;;;34.30;47.30;;;;;;5049751;28;20140;-66